Weather Data

Pearl Creek Farm: 8878 N Farm Road 75, Walnut Grove MO 65770

<== Previous Day (Monday 18 Jun 2018) | Next Day (Wednesday 20 Jun 2018) ==>

Summary Precipitation Data For Tuesday 19 June 2018

ElementValueUnits
Precipitation0"
Notes(none)
SourcePearl Creek Farm

Summary Temperature Data For Tuesday 19 June 2018

ElementValueUnits
High Temperature90 oF
Low Temperature73 oF
Average Temperature81 oF
High Humidity82 %
Low Humidity47 %
Average Humidity63 %
SourceSpringfield-Branson National Airport (SGF)

Detail Temperature Data For Tuesday 19 June 2018

Date / TimeTemp (F)RH (%)Dew Pt (F)Report Date / TimeSource
2018-06-19 14:52:00 89 50 68.0 2019-02-02 11:24:24.260017 Springfield-Branson National Airport (SGF)
2018-06-19 00:52:00 77 71 67.0 2019-02-02 11:24:24.260017 Springfield-Branson National Airport (SGF)
2018-06-19 01:52:00 75 76 67.0 2019-02-02 11:24:24.260017 Springfield-Branson National Airport (SGF)
2018-06-19 02:52:00 75 76 67.0 2019-02-02 11:24:24.260017 Springfield-Branson National Airport (SGF)
2018-06-19 03:52:00 74 79 67.0 2019-02-02 11:24:24.260017 Springfield-Branson National Airport (SGF)
2018-06-19 04:52:00 73 81 67.0 2019-02-02 11:24:24.260017 Springfield-Branson National Airport (SGF)
2018-06-19 05:52:00 74 82 68.0 2019-02-02 11:24:24.260017 Springfield-Branson National Airport (SGF)
2018-06-19 06:52:00 77 74 68.0 2019-02-02 11:24:24.260017 Springfield-Branson National Airport (SGF)
2018-06-19 07:52:00 80 67 68.0 2019-02-02 11:24:24.260017 Springfield-Branson National Airport (SGF)
2018-06-19 08:52:00 83 61 68.0 2019-02-02 11:24:24.260017 Springfield-Branson National Airport (SGF)
2018-06-19 09:52:00 85 55 67.0 2019-02-02 11:24:24.260017 Springfield-Branson National Airport (SGF)
2018-06-19 10:52:00 86 53 67.0 2019-02-02 11:24:24.260017 Springfield-Branson National Airport (SGF)
2018-06-19 11:52:00 89 48 67.0 2019-02-02 11:24:24.260017 Springfield-Branson National Airport (SGF)
2018-06-19 12:52:00 90 47 67.0 2019-02-02 11:24:24.260017 Springfield-Branson National Airport (SGF)
2018-06-19 13:52:00 87 50 66.0 2019-02-02 11:24:24.260017 Springfield-Branson National Airport (SGF)
2018-06-19 15:52:00 89 47 66.0 2019-02-02 11:24:24.260017 Springfield-Branson National Airport (SGF)
2018-06-19 16:52:00 89 47 66.0 2019-02-02 11:24:24.260017 Springfield-Branson National Airport (SGF)
2018-06-19 17:52:00 87 50 66.0 2019-02-02 11:24:24.260017 Springfield-Branson National Airport (SGF)
2018-06-19 18:52:00 85 53 66.0 2019-02-02 11:24:24.260017 Springfield-Branson National Airport (SGF)
2018-06-19 19:52:00 82 58 66.0 2019-02-02 11:24:24.260017 Springfield-Branson National Airport (SGF)
2018-06-19 20:52:00 79 67 67.0 2019-02-02 11:24:24.260017 Springfield-Branson National Airport (SGF)
2018-06-19 21:52:00 77 71 67.0 2019-02-02 11:24:24.260017 Springfield-Branson National Airport (SGF)
2018-06-19 22:52:00 76 74 67.0 2019-02-02 11:24:24.260017 Springfield-Branson National Airport (SGF)
2018-06-19 23:52:00 74 76 66.0 2019-02-02 11:24:24.260017 Springfield-Branson National Airport (SGF)

A total of 24 rows are displayed.